Time;durP1;ratioP1;P1;durP2;ratioP2;P2;SDS_P1;SDS_P2;PMS_P1;PMS_P2;Temp;Humidity;BMP_temperature;BMP_pressure;BME280_temperature;BME280_humidity;BME280_pressure;Samples;Min_cycle;Max_cycle;Signal;HPM_P1;HPM_P2
2023/11/23 00:00:40;;;;;;;19.33;9.43;;;;;;;;;;4991893;28;20030;-70
2023/11/23 00:03:06;;;;;;;23.33;9.33;;;;;;;;;;5008674;28;20026;-68
2023/11/23 00:05:31;;;;;;;21.27;10.23;;;;;;;;;;5008704;28;20025;-70
2023/11/23 00:07:58;;;;;;;21.10;8.67;;;;;;;;;;5008939;28;20490;-69
2023/11/23 00:10:23;;;;;;;28.10;9.80;;;;;;;;;;5011471;28;20099;-70
2023/11/23 00:12:49;;;;;;;20.07;9.07;;;;;;;;;;5010091;28;20123;-71
2023/11/23 00:15:15;;;;;;;15.93;7.87;;;;;;;;;;5027980;28;20034;-70
2023/11/23 00:17:40;;;;;;;16.80;8.60;;;;;;;;;;5013967;28;20552;-70
2023/11/23 00:20:06;;;;;;;16.60;8.63;;;;;;;;;;5011409;28;20137;-70
2023/11/23 00:22:33;;;;;;;19.07;8.03;;;;;;;;;;4994802;28;20121;-72
2023/11/23 00:24:59;;;;;;;18.97;7.83;;;;;;;;;;4990247;28;20073;-68
2023/11/23 00:27:24;;;;;;;17.90;7.70;;;;;;;;;;4989039;28;20038;-69
2023/11/23 00:29:51;;;;;;;18.43;8.23;;;;;;;;;;4990026;28;20030;-70
2023/11/23 00:32:17;;;;;;;18.53;9.07;;;;;;;;;;4988830;28;20192;-69
2023/11/23 00:34:43;;;;;;;17.87;8.03;;;;;;;;;;5005130;28;20057;-71
2023/11/23 00:37:09;;;;;;;15.97;6.53;;;;;;;;;;5009095;28;20438;-68
2023/11/23 00:39:36;;;;;;;14.53;6.83;;;;;;;;;;5009461;28;20212;-71
2023/11/23 00:42:02;;;;;;;15.37;7.43;;;;;;;;;;5007802;28;20520;-68
2023/11/23 00:44:27;;;;;;;15.23;7.70;;;;;;;;;;5008055;28;20028;-69
2023/11/23 00:46:53;;;;;;;18.40;8.10;;;;;;;;;;5007909;28;20026;-71
2023/11/23 00:49:19;;;;;;;16.67;7.50;;;;;;;;;;5009450;28;20109;-71
2023/11/23 00:51:45;;;;;;;15.10;7.10;;;;;;;;;;5011235;28;20053;-69
2023/11/23 00:54:10;;;;;;;10.53;6.17;;;;;;;;;;5011416;28;20077;-69
2023/11/23 00:56:39;;;;;;;10.70;6.60;;;;;;;;;;5012623;28;20044;-70
2023/11/23 00:59:04;;;;;;;11.00;6.37;;;;;;;;;;5013104;28;20030;-71
2023/11/23 01:01:30;;;;;;;13.20;7.13;;;;;;;;;;5012891;28;20040;-69
2023/11/23 01:03:56;;;;;;;14.70;6.80;;;;;;;;;;5007327;28;20088;-70
2023/11/23 01:06:21;;;;;;;14.40;7.33;;;;;;;;;;4992050;28;20160;-69
2023/11/23 01:08:47;;;;;;;13.17;6.97;;;;;;;;;;5008815;28;20109;-70
2023/11/23 01:11:13;;;;;;;12.93;6.63;;;;;;;;;;5008572;28;20478;-70
2023/11/23 01:13:40;;;;;;;13.73;6.37;;;;;;;;;;4993408;28;20049;-69
2023/11/23 01:16:07;;;;;;;12.33;6.57;;;;;;;;;;5008191;28;20478;-70
2023/11/23 01:18:33;;;;;;;11.17;6.63;;;;;;;;;;4999407;28;20210;-69
2023/11/23 01:20:58;;;;;;;10.63;6.13;;;;;;;;;;5012170;28;20078;-70
2023/11/23 01:23:25;;;;;;;11.13;6.70;;;;;;;;;;5012524;28;20113;-70
2023/11/23 01:25:52;;;;;;;14.53;7.53;;;;;;;;;;5001449;28;20117;-69
2023/11/23 01:28:18;;;;;;;14.93;6.80;;;;;;;;;;4991414;28;20176;-69
2023/11/23 01:30:44;;;;;;;13.17;6.33;;;;;;;;;;4992822;28;20097;-70
2023/11/23 01:33:11;;;;;;;10.10;5.47;;;;;;;;;;5003000;28;20505;-70
2023/11/23 01:35:37;;;;;;;13.33;6.03;;;;;;;;;;5010707;28;20037;-69
2023/11/23 01:38:02;;;;;;;11.87;6.37;;;;;;;;;;5011976;28;20022;-69
2023/11/23 01:40:29;;;;;;;10.47;5.90;;;;;;;;;;5011997;28;20080;-69
2023/11/23 01:43:07;;;;;;;12.73;5.93;;;;;;;;;;5010401;28;20034;-69
2023/11/23 01:45:33;;;;;;;13.30;6.60;;;;;;;;;;5012185;28;20504;-70
2023/11/23 01:47:59;;;;;;;9.97;6.17;;;;;;;;;;4991332;28;20105;-71
2023/11/23 01:50:25;;;;;;;13.97;7.03;;;;;;;;;;4992276;28;20097;-70
2023/11/23 01:52:51;;;;;;;14.20;7.20;;;;;;;;;;4992193;28;20120;-69
2023/11/23 01:55:17;;;;;;;11.67;6.13;;;;;;;;;;5006649;28;20029;-69
2023/11/23 01:57:44;;;;;;;13.30;6.77;;;;;;;;;;4992160;28;20037;-69
2023/11/23 02:00:13;;;;;;;13.47;6.87;;;;;;;;;;4994313;28;20121;-72
2023/11/23 02:02:41;;;;;;;13.23;6.77;;;;;;;;;;4991638;28;20045;-70
2023/11/23 02:05:09;;;;;;;12.90;7.00;;;;;;;;;;4990556;28;20117;-69
2023/11/23 02:07:35;;;;;;;11.77;6.07;;;;;;;;;;4990726;28;20085;-70
2023/11/23 02:10:01;;;;;;;15.83;6.67;;;;;;;;;;4990703;28;20030;-68
2023/11/23 02:12:28;;;;;;;11.47;5.97;;;;;;;;;;4992524;28;20121;-68
2023/11/23 02:14:54;;;;;;;12.33;6.87;;;;;;;;;;4995929;28;20023;-70
2023/11/23 02:17:21;;;;;;;10.13;6.20;;;;;;;;;;4995670;28;20030;-71
2023/11/23 02:19:48;;;;;;;12.57;6.27;;;;;;;;;;4991326;28;20030;-71
2023/11/23 02:22:15;;;;;;;12.43;6.93;;;;;;;;;;4991544;28;20042;-69
2023/11/23 02:24:43;;;;;;;8.90;6.37;;;;;;;;;;4990634;28;20068;-69
2023/11/23 02:27:09;;;;;;;13.37;7.40;;;;;;;;;;4990167;28;20019;-68
2023/11/23 02:29:35;;;;;;;14.47;7.93;;;;;;;;;;5003821;28;20117;-70
2023/11/23 02:32:08;;;;;;;15.17;8.00;;;;;;;;;;5010792;28;20474;-68
2023/11/23 02:34:39;;;;;;;15.17;7.20;;;;;;;;;;5010366;28;20032;-70
2023/11/23 02:37:05;;;;;;;11.30;5.90;;;;;;;;;;5009375;28;20030;-68
2023/11/23 02:39:31;;;;;;;11.43;6.40;;;;;;;;;;5011243;28;20030;-71
2023/11/23 02:41:58;;;;;;;13.27;6.63;;;;;;;;;;5012225;28;20152;-70
2023/11/23 02:44:24;;;;;;;13.57;7.43;;;;;;;;;;5009824;28;20108;-69
2023/11/23 02:46:50;;;;;;;14.70;6.87;;;;;;;;;;5012373;28;20026;-68
2023/11/23 02:49:16;;;;;;;15.43;7.27;;;;;;;;;;5010541;28;20371;-70
2023/11/23 02:51:42;;;;;;;12.13;6.87;;;;;;;;;;5010636;28;20021;-70
2023/11/23 02:54:07;;;;;;;13.73;6.10;;;;;;;;;;5010711;28;20120;-71
2023/11/23 02:56:33;;;;;;;12.03;7.07;;;;;;;;;;5010910;28;20026;-70
2023/11/23 02:58:59;;;;;;;14.60;6.33;;;;;;;;;;4993410;28;20036;-69
2023/11/23 03:01:24;;;;;;;11.37;6.17;;;;;;;;;;5008989;28;20061;-70
2023/11/23 03:03:53;;;;;;;14.50;7.53;;;;;;;;;;5009417;28;20026;-69
2023/11/23 03:06:18;;;;;;;12.57;7.33;;;;;;;;;;5010181;28;20996;-69
2023/11/23 03:08:44;;;;;;;11.63;6.67;;;;;;;;;;5011118;28;20020;-69
2023/11/23 03:11:20;;;;;;;15.17;6.43;;;;;;;;;;5002784;28;20396;-68
2023/11/23 03:13:47;;;;;;;15.47;6.47;;;;;;;;;;4989427;28;20068;-69
2023/11/23 03:16:12;;;;;;;12.47;6.30;;;;;;;;;;4989119;28;20031;-69
2023/11/23 03:18:39;;;;;;;10.93;5.83;;;;;;;;;;4989398;28;20030;-69
2023/11/23 03:21:04;;;;;;;11.43;5.67;;;;;;;;;;5005456;28;20117;-70
2023/11/23 03:23:30;;;;;;;14.47;7.17;;;;;;;;;;4989095;28;20146;-70
2023/11/23 03:25:56;;;;;;;14.03;6.60;;;;;;;;;;4998918;28;20025;-70
2023/11/23 03:28:21;;;;;;;14.60;7.53;;;;;;;;;;5009808;28;20028;-69
2023/11/23 03:30:47;;;;;;;17.13;7.37;;;;;;;;;;5008796;28;20446;-69
2023/11/23 03:33:14;;;;;;;10.63;5.83;;;;;;;;;;5008539;28;20025;-70
2023/11/23 03:35:40;;;;;;;13.40;7.13;;;;;;;;;;5008631;28;20075;-70
2023/11/23 03:38:07;;;;;;;13.43;6.70;;;;;;;;;;5008389;28;20029;-69
2023/11/23 03:40:33;;;;;;;12.60;6.57;;;;;;;;;;5007985;28;20382;-70
2023/11/23 03:42:59;;;;;;;13.27;6.47;;;;;;;;;;5009987;28;20092;-70
2023/11/23 03:45:24;;;;;;;10.87;5.93;;;;;;;;;;5008472;28;20029;-70
2023/11/23 03:47:50;;;;;;;11.00;6.37;;;;;;;;;;5008444;28;20025;-70
2023/11/23 03:50:16;;;;;;;12.33;7.53;;;;;;;;;;5008091;28;20061;-70
2023/11/23 03:52:42;;;;;;;15.37;7.40;;;;;;;;;;5008400;28;20032;-70
2023/11/23 03:55:08;;;;;;;12.30;6.53;;;;;;;;;;4994962;28;20034;-69
2023/11/23 03:57:34;;;;;;;13.23;6.83;;;;;;;;;;4989189;28;20062;-69
2023/11/23 04:00:00;;;;;;;14.47;7.27;;;;;;;;;;4989118;28;20062;-69
2023/11/23 04:02:26;;;;;;;13.83;7.77;;;;;;;;;;5007211;28;20104;-69
2023/11/23 04:04:52;;;;;;;12.13;7.00;;;;;;;;;;5008808;28;20033;-71
2023/11/23 04:07:17;;;;;;;14.43;7.70;;;;;;;;;;5008473;28;20036;-69
2023/11/23 04:09:43;;;;;;;13.97;7.20;;;;;;;;;;5007828;28;20057;-70
2023/11/23 04:12:08;;;;;;;16.50;8.53;;;;;;;;;;5009561;28;20093;-69
2023/11/23 04:14:34;;;;;;;13.70;7.73;;;;;;;;;;5010187;28;20064;-68
2023/11/23 04:16:59;;;;;;;16.07;7.50;;;;;;;;;;5009692;28;20057;-70
2023/11/23 04:19:25;;;;;;;19.20;8.43;;;;;;;;;;5008223;28;20025;-70
2023/11/23 04:21:51;;;;;;;16.33;7.33;;;;;;;;;;5006856;28;20034;-71
2023/11/23 04:24:17;;;;;;;17.90;7.80;;;;;;;;;;4993993;28;20026;-69
2023/11/23 04:26:42;;;;;;;14.60;7.77;;;;;;;;;;4992854;28;20089;-70
2023/11/23 04:29:08;;;;;;;17.40;8.90;;;;;;;;;;4992411;28;20022;-71
2023/11/23 04:31:35;;;;;;;14.87;7.93;;;;;;;;;;4992584;28;20030;-70
2023/11/23 04:34:02;;;;;;;14.90;7.70;;;;;;;;;;4992301;28;20038;-70
2023/11/23 04:36:30;;;;;;;12.47;7.30;;;;;;;;;;4998017;28;20060;-70
2023/11/23 04:38:58;;;;;;;12.97;7.47;;;;;;;;;;5011900;28;20444;-70
2023/11/23 04:41:24;;;;;;;13.40;7.43;;;;;;;;;;5012013;28;20054;-69
2023/11/23 04:43:49;;;;;;;14.67;7.83;;;;;;;;;;5011658;28;20049;-69
2023/11/23 04:46:17;;;;;;;16.70;9.03;;;;;;;;;;5012938;28;20429;-69
2023/11/23 04:48:42;;;;;;;10.90;6.23;;;;;;;;;;5028634;28;20100;-70
2023/11/23 04:51:08;;;;;;;14.13;7.40;;;;;;;;;;5011550;28;20118;-70
2023/11/23 04:53:35;;;;;;;14.50;7.47;;;;;;;;;;5012181;28;20441;-69
2023/11/23 04:56:01;;;;;;;15.07;7.53;;;;;;;;;;5013166;28;20028;-71
2023/11/23 04:58:27;;;;;;;12.70;7.37;;;;;;;;;;5011397;28;20402;-69
2023/11/23 05:00:52;;;;;;;13.10;7.17;;;;;;;;;;5008796;28;20467;-70
2023/11/23 05:03:18;;;;;;;15.87;9.07;;;;;;;;;;4993380;28;20026;-69
2023/11/23 05:05:44;;;;;;;15.50;7.07;;;;;;;;;;5005364;28;20029;-69
2023/11/23 05:08:09;;;;;;;15.37;7.80;;;;;;;;;;5011199;28;20469;-69
2023/11/23 05:10:35;;;;;;;13.77;7.00;;;;;;;;;;5011563;28;20049;-69
2023/11/23 05:13:00;;;;;;;16.87;7.83;;;;;;;;;;5012744;28;20422;-70
2023/11/23 05:15:26;;;;;;;14.70;7.90;;;;;;;;;;5011647;28;20501;-69
2023/11/23 05:17:53;;;;;;;13.27;6.70;;;;;;;;;;5012845;28;20132;-69
2023/11/23 05:20:18;;;;;;;12.03;7.30;;;;;;;;;;4996565;28;20232;-71
2023/11/23 05:22:45;;;;;;;13.93;7.43;;;;;;;;;;4992092;28;20034;-69
2023/11/23 05:25:11;;;;;;;14.63;7.50;;;;;;;;;;4991218;28;20042;-71
2023/11/23 05:27:37;;;;;;;12.93;5.93;;;;;;;;;;4991585;28;20121;-71
2023/11/23 05:30:03;;;;;;;12.63;6.40;;;;;;;;;;4992838;28;20053;-72
2023/11/23 05:32:29;;;;;;;15.33;7.83;;;;;;;;;;4992850;28;20034;-71
2023/11/23 05:34:55;;;;;;;13.30;6.60;;;;;;;;;;5008459;28;20080;-70
2023/11/23 05:37:22;;;;;;;16.23;7.53;;;;;;;;;;5011784;28;20447;-71
2023/11/23 05:39:49;;;;;;;12.83;6.80;;;;;;;;;;5012159;28;20030;-69
2023/11/23 05:42:14;;;;;;;16.33;7.40;;;;;;;;;;5026790;28;20029;-70
2023/11/23 05:44:41;;;;;;;11.60;6.77;;;;;;;;;;5010933;28;20032;-70
2023/11/23 05:47:06;;;;;;;13.43;5.87;;;;;;;;;;5007413;28;20052;-71
2023/11/23 05:49:32;;;;;;;12.80;6.83;;;;;;;;;;5006510;28;20637;-69
2023/11/23 05:51:59;;;;;;;16.53;7.47;;;;;;;;;;4990854;28;20475;-71
2023/11/23 05:54:24;;;;;;;13.30;6.50;;;;;;;;;;4990831;28;20417;-69
2023/11/23 05:56:50;;;;;;;12.63;6.53;;;;;;;;;;4991221;28;20034;-71
2023/11/23 05:59:15;;;;;;;12.23;6.77;;;;;;;;;;4990621;28;20061;-69
2023/11/23 06:01:41;;;;;;;12.60;5.90;;;;;;;;;;4995885;28;20034;-70
2023/11/23 06:04:06;;;;;;;14.33;6.87;;;;;;;;;;5010328;28;20438;-70
2023/11/23 06:06:32;;;;;;;13.23;8.23;;;;;;;;;;5010515;28;20120;-70
2023/11/23 06:08:57;;;;;;;11.10;5.27;;;;;;;;;;5011296;28;20022;-69
2023/11/23 06:11:23;;;;;;;13.17;6.27;;;;;;;;;;5011372;28;20030;-69
2023/11/23 06:13:49;;;;;;;10.90;6.10;;;;;;;;;;5010219;28;20163;-69
2023/11/23 06:16:15;;;;;;;12.03;5.60;;;;;;;;;;5010511;28;20060;-69
2023/11/23 06:18:41;;;;;;;10.33;5.53;;;;;;;;;;5019768;28;20684;-72
2023/11/23 06:21:13;;;;;;;13.90;7.27;;;;;;;;;;5005154;28;20498;-70
2023/11/23 06:23:38;;;;;;;11.48;6.07;;;;;;;;;;5007934;28;20030;-70
2023/11/23 06:26:04;;;;;;;10.53;5.53;;;;;;;;;;5003257;28;20037;-69
2023/11/23 06:28:29;;;;;;;13.13;6.03;;;;;;;;;;5015810;28;20028;-69
2023/11/23 06:30:55;;;;;;;14.50;7.27;;;;;;;;;;5004027;28;20112;-69
2023/11/23 06:33:21;;;;;;;14.23;6.70;;;;;;;;;;5001639;28;20033;-70
2023/11/23 06:35:46;;;;;;;10.30;4.70;;;;;;;;;;5007575;28;20418;-69
2023/11/23 06:38:12;;;;;;;13.27;6.90;;;;;;;;;;5005256;28;20026;-71
2023/11/23 06:40:39;;;;;;;13.43;7.10;;;;;;;;;;5003279;28;20033;-70
2023/11/23 06:43:07;;;;;;;10.17;6.03;;;;;;;;;;5004171;28;20124;-69
2023/11/23 06:45:32;;;;;;;13.80;6.97;;;;;;;;;;5002851;28;20029;-71
2023/11/23 06:47:58;;;;;;;13.03;6.87;;;;;;;;;;5000201;28;20421;-70
2023/11/23 06:50:24;;;;;;;11.83;7.13;;;;;;;;;;5000767;28;20022;-69
2023/11/23 06:52:49;;;;;;;13.13;6.33;;;;;;;;;;4993185;28;20034;-70
2023/11/23 06:55:15;;;;;;;14.47;7.17;;;;;;;;;;5005726;28;20129;-70
2023/11/23 06:57:46;;;;;;;13.63;6.03;;;;;;;;;;4990418;28;20117;-69
2023/11/23 07:00:23;;;;;;;13.33;7.23;;;;;;;;;;4999257;28;20318;-71
2023/11/23 07:02:55;;;;;;;14.10;6.63;;;;;;;;;;5027365;28;20029;-70
2023/11/23 07:05:20;;;;;;;12.98;6.35;;;;;;;;;;5027806;28;20056;-68
2023/11/23 07:07:50;;;;;;;10.13;5.83;;;;;;;;;;5007578;28;20382;-71
2023/11/23 07:10:17;;;;;;;16.47;7.33;;;;;;;;;;5001023;28;20088;-70
2023/11/23 07:12:44;;;;;;;11.97;5.93;;;;;;;;;;5001910;28;20069;-70
2023/11/23 07:15:11;;;;;;;15.07;6.90;;;;;;;;;;4998648;28;20046;-70
2023/11/23 07:17:36;;;;;;;12.30;6.73;;;;;;;;;;5008275;28;20121;-68
2023/11/23 07:20:05;;;;;;;12.53;6.40;;;;;;;;;;4996313;28;20038;-71
2023/11/23 07:22:31;;;;;;;15.97;7.50;;;;;;;;;;4998299;28;20049;-70
2023/11/23 07:24:57;;;;;;;11.33;6.40;;;;;;;;;;5000051;28;20453;-73
2023/11/23 07:27:24;;;;;;;14.27;7.17;;;;;;;;;;5003122;28;20029;-70
2023/11/23 07:29:49;;;;;;;15.13;7.50;;;;;;;;;;5002539;28;20195;-69
2023/11/23 07:32:16;;;;;;;7.77;5.40;;;;;;;;;;5007009;28;20455;-71
2023/11/23 07:34:42;;;;;;;13.40;6.50;;;;;;;;;;5004112;28;20038;-71
2023/11/23 07:37:10;;;;;;;18.37;6.70;;;;;;;;;;5009060;28;20030;-73
2023/11/23 07:39:36;;;;;;;11.73;6.43;;;;;;;;;;5004518;28;20038;-70
2023/11/23 07:42:03;;;;;;;11.80;6.03;;;;;;;;;;5000312;28;20340;-70
2023/11/23 07:44:29;;;;;;;12.27;5.77;;;;;;;;;;4993636;28;20029;-69
2023/11/23 07:46:59;;;;;;;10.67;6.07;;;;;;;;;;4995020;28;20038;-71
2023/11/23 07:49:25;;;;;;;11.23;5.83;;;;;;;;;;4999979;28;20536;-71
2023/11/23 07:51:55;;;;;;;10.80;5.97;;;;;;;;;;5014858;28;20136;-70
2023/11/23 07:54:21;;;;;;;13.47;7.10;;;;;;;;;;4988148;28;20033;-68
2023/11/23 07:56:46;;;;;;;14.37;6.83;;;;;;;;;;4995008;28;20108;-69
2023/11/23 07:59:12;;;;;;;12.53;5.67;;;;;;;;;;5000156;28;20038;-73
2023/11/23 08:01:37;;;;;;;11.80;5.87;;;;;;;;;;4986555;28;20084;-70
2023/11/23 08:04:03;;;;;;;9.07;5.30;;;;;;;;;;4998692;28;20029;-74
2023/11/23 08:06:29;;;;;;;11.90;5.20;;;;;;;;;;5000802;28;20943;-70
2023/11/23 08:08:56;;;;;;;15.30;5.53;;;;;;;;;;4995783;28;20106;-72
2023/11/23 08:11:23;;;;;;;11.40;5.20;;;;;;;;;;5017150;28;20041;-71
2023/11/23 08:13:49;;;;;;;11.17;5.57;;;;;;;;;;5006680;28;20050;-70
2023/11/23 08:16:15;;;;;;;9.30;5.17;;;;;;;;;;5002058;28;20096;-73
2023/11/23 08:18:41;;;;;;;10.43;5.53;;;;;;;;;;4997229;28;20034;-71
2023/11/23 08:21:07;;;;;;;12.10;5.53;;;;;;;;;;4998969;28;20041;-72
2023/11/23 08:23:32;;;;;;;12.27;5.93;;;;;;;;;;5001602;28;20033;-70
2023/11/23 08:26:00;;;;;;;14.60;6.40;;;;;;;;;;5002349;28;20064;-67
2023/11/23 08:28:27;;;;;;;13.93;5.87;;;;;;;;;;4998093;28;20026;-71
2023/11/23 08:30:52;;;;;;;8.13;5.07;;;;;;;;;;5009195;28;20053;-70
2023/11/23 08:33:18;;;;;;;11.37;5.37;;;;;;;;;;5001168;28;20092;-70
2023/11/23 08:35:44;;;;;;;8.60;5.57;;;;;;;;;;4995574;28;20103;-71
2023/11/23 08:38:13;;;;;;;10.80;5.03;;;;;;;;;;4996324;28;20081;-71
2023/11/23 08:40:39;;;;;;;10.07;5.27;;;;;;;;;;4992489;28;20164;-70
2023/11/23 08:43:06;;;;;;;7.90;4.70;;;;;;;;;;5004631;28;20064;-69
2023/11/23 08:45:32;;;;;;;9.90;5.00;;;;;;;;;;5002621;28;20034;-72
2023/11/23 08:47:57;;;;;;;9.87;5.77;;;;;;;;;;5002602;28;20088;-71
2023/11/23 08:50:23;;;;;;;8.00;4.40;;;;;;;;;;5002065;28;20112;-69
2023/11/23 08:52:59;;;;;;;6.87;4.33;;;;;;;;;;4998957;28;20076;-72
2023/11/23 08:55:24;;;;;;;10.63;4.47;;;;;;;;;;5021410;28;20033;-71
2023/11/23 08:57:51;;;;;;;13.47;5.73;;;;;;;;;;5005866;28;20100;-71
2023/11/23 09:00:23;;;;;;;9.57;5.03;;;;;;;;;;4989630;28;20116;-71
2023/11/23 09:02:54;;;;;;;12.80;5.90;;;;;;;;;;4989119;28;20112;-71
2023/11/23 09:05:21;;;;;;;9.27;4.67;;;;;;;;;;4997239;28;20044;-73
2023/11/23 09:07:50;;;;;;;8.60;4.60;;;;;;;;;;4994598;28;20526;-73
2023/11/23 09:10:16;;;;;;;13.30;5.00;;;;;;;;;;4996284;28;20042;-71
2023/11/23 09:12:43;;;;;;;10.60;4.97;;;;;;;;;;5014062;28;20369;-71
2023/11/23 09:15:10;;;;;;;9.23;4.90;;;;;;;;;;5009310;28;20034;-68
2023/11/23 09:17:38;;;;;;;9.43;5.13;;;;;;;;;;5012993;28;20022;-72
2023/11/23 09:20:08;;;;;;;10.10;5.97;;;;;;;;;;5004562;28;20041;-69
2023/11/23 09:22:35;;;;;;;10.43;5.27;;;;;;;;;;5016580;28;20025;-71
2023/11/23 09:25:03;;;;;;;8.63;5.37;;;;;;;;;;5005555;28;20466;-71
2023/11/23 09:27:30;;;;;;;9.67;5.93;;;;;;;;;;4995763;28;20598;-73
2023/11/23 09:29:57;;;;;;;12.60;5.57;;;;;;;;;;4999876;28;20079;-73
2023/11/23 09:32:23;;;;;;;8.33;5.43;;;;;;;;;;4993109;28;20087;-70
2023/11/23 09:34:49;;;;;;;13.13;5.90;;;;;;;;;;4999522;28;20022;-69
2023/11/23 09:37:15;;;;;;;8.00;4.30;;;;;;;;;;5000157;28;20390;-72
2023/11/23 09:39:44;;;;;;;11.27;5.97;;;;;;;;;;4997167;28;20119;-70
2023/11/23 09:42:15;;;;;;;8.97;4.87;;;;;;;;;;5004777;28;20113;-69
2023/11/23 09:44:42;;;;;;;12.97;6.07;;;;;;;;;;5018355;28;20034;-70
2023/11/23 09:47:09;;;;;;;11.17;5.57;;;;;;;;;;4991609;28;20034;-71
2023/11/23 09:49:37;;;;;;;13.60;5.67;;;;;;;;;;4994920;28;20569;-71
2023/11/23 09:52:04;;;;;;;9.77;5.33;;;;;;;;;;4996295;28;20235;-71
2023/11/23 09:54:33;;;;;;;10.77;5.17;;;;;;;;;;5008542;28;20543;-68
2023/11/23 09:57:00;;;;;;;8.43;5.10;;;;;;;;;;4995215;28;20216;-69
2023/11/23 09:59:28;;;;;;;10.77;5.60;;;;;;;;;;4992588;28;20477;-69
2023/11/23 10:02:03;;;;;;;9.70;4.70;;;;;;;;;;4999420;28;20029;-70
2023/11/23 10:04:32;;;;;;;14.80;5.90;;;;;;;;;;5005754;28;20042;-70
2023/11/23 10:06:59;;;;;;;9.57;5.60;;;;;;;;;;4998070;28;20025;-70
2023/11/23 10:09:26;;;;;;;12.33;5.43;;;;;;;;;;4989955;28;20033;-69
2023/11/23 10:11:55;;;;;;;19.23;5.80;;;;;;;;;;4999222;28;20425;-72
2023/11/23 10:14:21;;;;;;;15.00;5.53;;;;;;;;;;4997411;28;21030;-72
2023/11/23 10:16:48;;;;;;;13.67;5.63;;;;;;;;;;4996093;28;20038;-72
2023/11/23 10:19:23;;;;;;;11.73;5.03;;;;;;;;;;4991538;28;20029;-70
2023/11/23 10:21:58;;;;;;;15.70;5.30;;;;;;;;;;5001683;28;20045;-70
2023/11/23 10:24:45;;;;;;;9.43;4.87;;;;;;;;;;5012397;28;20042;-72
2023/11/23 10:27:11;;;;;;;10.30;4.83;;;;;;;;;;4998541;28;20032;-71
2023/11/23 10:29:43;;;;;;;8.07;5.43;;;;;;;;;;4997538;28;20029;-70
2023/11/23 10:32:20;;;;;;;8.93;4.90;;;;;;;;;;4997606;28;20026;-70
2023/11/23 10:34:52;;;;;;;14.17;6.23;;;;;;;;;;5001866;28;20038;-71
2023/11/23 10:37:23;;;;;;;9.88;5.97;;;;;;;;;;5009293;28;20026;-71
2023/11/23 10:39:54;;;;;;;11.15;5.15;;;;;;;;;;4997877;28;20034;-71
2023/11/23 10:42:20;;;;;;;9.03;4.73;;;;;;;;;;4993254;28;20081;-71
2023/11/23 10:44:52;;;;;;;10.17;5.43;;;;;;;;;;4999240;28;20042;-70
2023/11/23 10:47:18;;;;;;;;;;;;;;;;;;4999637;28;20037;-72
2023/11/23 10:49:45;;;;;;;11.07;4.73;;;;;;;;;;4999683;28;19921;-71
2023/11/23 10:52:11;;;;;;;9.83;5.27;;;;;;;;;;5009060;28;20363;-71
2023/11/23 10:54:39;;;;;;;9.57;5.03;;;;;;;;;;5011986;28;20037;-70
2023/11/23 10:57:09;;;;;;;8.57;5.23;;;;;;;;;;4999134;28;20026;-70
2023/11/23 10:59:36;;;;;;;15.17;5.23;;;;;;;;;;4993429;28;20033;-72
2023/11/23 11:02:03;;;;;;;8.90;4.73;;;;;;;;;;4992956;28;20038;-72
2023/11/23 11:04:29;;;;;;;12.93;5.83;;;;;;;;;;5001564;28;21069;-71
2023/11/23 11:06:57;;;;;;;10.77;5.40;;;;;;;;;;5004573;28;20034;-71
2023/11/23 11:09:25;;;;;;;8.00;4.57;;;;;;;;;;4997521;28;21055;-73
2023/11/23 11:11:54;;;;;;;7.83;4.80;;;;;;;;;;4995459;28;20050;-71
2023/11/23 11:14:36;;;;;;;7.83;4.27;;;;;;;;;;4994571;28;20054;-70
2023/11/23 11:17:04;;;;;;;10.17;4.87;;;;;;;;;;4989743;28;20045;-69
2023/11/23 11:19:47;;;;;;;9.03;3.97;;;;;;;;;;4995348;28;20032;-70
2023/11/23 11:22:13;;;;;;;7.57;4.47;;;;;;;;;;4997758;28;20445;-70
2023/11/23 11:24:40;;;;;;;9.73;4.80;;;;;;;;;;5002972;28;20509;-71
2023/11/23 11:27:10;;;;;;;8.33;4.80;;;;;;;;;;4986718;28;20033;-72
2023/11/23 11:29:36;;;;;;;8.43;4.53;;;;;;;;;;4997328;28;20121;-72
2023/11/23 11:32:06;;;;;;;8.97;5.10;;;;;;;;;;4999783;28;20048;-71
2023/11/23 11:34:34;;;;;;;12.43;5.10;;;;;;;;;;4985454;28;20037;-71
2023/11/23 11:37:03;;;;;;;8.50;4.40;;;;;;;;;;4997236;28;20117;-70
2023/11/23 11:39:30;;;;;;;9.73;4.20;;;;;;;;;;4996841;28;20050;-70
2023/11/23 11:41:59;;;;;;;11.03;4.83;;;;;;;;;;5014805;28;20511;-70
2023/11/23 11:44:29;;;;;;;9.60;5.07;;;;;;;;;;5002490;28;20040;-70
2023/11/23 11:46:58;;;;;;;13.03;5.27;;;;;;;;;;5000496;28;20363;-74
2023/11/23 11:49:24;;;;;;;11.03;4.60;;;;;;;;;;5002342;28;20079;-70
2023/11/23 11:51:50;;;;;;;9.50;4.83;;;;;;;;;;4999800;28;20112;-69
2023/11/23 11:54:28;;;;;;;8.57;4.73;;;;;;;;;;5006895;28;20632;-72
2023/11/23 11:56:54;;;;;;;10.13;5.30;;;;;;;;;;4992322;28;20045;-71
2023/11/23 11:59:21;;;;;;;10.03;5.53;;;;;;;;;;5007839;28;20037;-71
2023/11/23 12:01:47;;;;;;;6.73;4.00;;;;;;;;;;4997917;28;20652;-68
2023/11/23 12:04:17;;;;;;;9.73;4.47;;;;;;;;;;5000110;28;20217;-71
2023/11/23 12:06:45;;;;;;;6.53;4.07;;;;;;;;;;5000301;28;20037;-70
2023/11/23 12:09:19;;;;;;;7.90;3.93;;;;;;;;;;4999995;28;20120;-72
2023/11/23 12:11:48;;;;;;;8.37;3.37;;;;;;;;;;5012350;28;20041;-71
2023/11/23 12:14:15;;;;;;;11.03;3.40;;;;;;;;;;5001737;28;20093;-71
2023/11/23 12:16:42;;;;;;;7.17;3.80;;;;;;;;;;5004207;28;20029;-70
2023/11/23 12:19:17;;;;;;;8.50;4.50;;;;;;;;;;4997947;28;20030;-70
2023/11/23 12:21:43;;;;;;;6.47;3.80;;;;;;;;;;4994566;28;20041;-69
2023/11/23 12:24:09;;;;;;;6.93;4.20;;;;;;;;;;5000937;28;20087;-72
2023/11/23 12:26:37;;;;;;;8.97;4.43;;;;;;;;;;4997841;28;20129;-70
2023/11/23 12:29:03;;;;;;;9.63;5.03;;;;;;;;;;4997912;28;20057;-72
2023/11/23 12:31:29;;;;;;;8.13;3.57;;;;;;;;;;5003753;28;20030;-70
2023/11/23 12:33:54;;;;;;;8.90;4.57;;;;;;;;;;4997597;28;20177;-70
2023/11/23 12:36:21;;;;;;;9.20;3.60;;;;;;;;;;5002197;28;20082;-69
2023/11/23 12:38:46;;;;;;;6.23;4.37;;;;;;;;;;5025551;28;20069;-73
2023/11/23 12:41:12;;;;;;;6.50;4.07;;;;;;;;;;4997961;28;20034;-71
2023/11/23 12:43:37;;;;;;;8.03;5.23;;;;;;;;;;4996336;28;20421;-72
2023/11/23 12:46:03;;;;;;;6.73;4.37;;;;;;;;;;5003265;28;20025;-70
2023/11/23 12:48:29;;;;;;;6.07;3.87;;;;;;;;;;5007091;28;20033;-71
2023/11/23 12:50:54;;;;;;;8.63;4.77;;;;;;;;;;4998151;28;20099;-69
2023/11/23 12:53:23;;;;;;;7.93;4.70;;;;;;;;;;5001002;28;20937;-72
2023/11/23 12:55:49;;;;;;;8.53;5.23;;;;;;;;;;4997338;28;20037;-71
2023/11/23 12:58:18;;;;;;;8.03;4.87;;;;;;;;;;5000518;28;20382;-70
2023/11/23 13:00:46;;;;;;;9.30;4.60;;;;;;;;;;5003906;28;20062;-72
2023/11/23 13:03:12;;;;;;;8.00;4.40;;;;;;;;;;5001751;28;20520;-72
2023/11/23 13:05:37;;;;;;;9.13;4.50;;;;;;;;;;5002293;28;20033;-70
2023/11/23 13:08:15;;;;;;;7.00;4.07;;;;;;;;;;4996409;28;20030;-70
2023/11/23 13:10:41;;;;;;;6.30;3.60;;;;;;;;;;5006531;28;20034;-72
2023/11/23 13:13:08;;;;;;;10.67;5.10;;;;;;;;;;5004507;28;21124;-72
2023/11/23 13:15:35;;;;;;;7.50;4.40;;;;;;;;;;5006438;28;20188;-70
2023/11/23 13:18:01;;;;;;;8.87;4.70;;;;;;;;;;4998245;28;20076;-71
2023/11/23 13:20:26;;;;;;;8.53;5.10;;;;;;;;;;4997019;28;20025;-72
2023/11/23 13:22:55;;;;;;;5.53;4.13;;;;;;;;;;5001911;28;20033;-70
2023/11/23 13:25:21;;;;;;;9.23;5.10;;;;;;;;;;5003716;28;20026;-70
2023/11/23 13:27:49;;;;;;;7.07;4.07;;;;;;;;;;5001646;28;20451;-72
2023/11/23 13:30:14;;;;;;;7.50;4.93;;;;;;;;;;5004550;28;20190;-71
2023/11/23 13:32:42;;;;;;;6.90;4.10;;;;;;;;;;5010289;28;20037;-71
2023/11/23 13:35:08;;;;;;;5.77;4.17;;;;;;;;;;4994371;28;20022;-73
2023/11/23 13:37:34;;;;;;;7.93;4.50;;;;;;;;;;5004148;28;20030;-70
2023/11/23 13:40:06;;;;;;;7.77;4.53;;;;;;;;;;5003983;28;20065;-71
2023/11/23 13:42:33;;;;;;;7.50;4.50;;;;;;;;;;5001655;28;20065;-69
2023/11/23 13:44:59;;;;;;;6.60;4.20;;;;;;;;;;4993521;28;20022;-73
2023/11/23 13:47:28;;;;;;;7.07;4.63;;;;;;;;;;4993374;28;20466;-71
2023/11/23 13:49:54;;;;;;;7.83;5.17;;;;;;;;;;5003426;28;20036;-73
2023/11/23 13:52:19;;;;;;;10.37;4.60;;;;;;;;;;4996799;28;20497;-72
2023/11/23 13:54:48;;;;;;;8.17;4.67;;;;;;;;;;5001857;28;20044;-73
2023/11/23 13:57:14;;;;;;;4.93;3.63;;;;;;;;;;4999713;28;20095;-70
2023/11/23 13:59:40;;;;;;;6.23;3.93;;;;;;;;;;4999266;28;20486;-71
2023/11/23 14:02:06;;;;;;;5.80;3.43;;;;;;;;;;4997417;28;20038;-69
2023/11/23 14:04:32;;;;;;;7.07;4.70;;;;;;;;;;5013651;28;20091;-71
2023/11/23 14:06:59;;;;;;;7.67;4.50;;;;;;;;;;4998442;28;20033;-69
2023/11/23 14:09:25;;;;;;;10.67;5.30;;;;;;;;;;4993749;28;20025;-73
2023/11/23 14:11:54;;;;;;;11.70;5.00;;;;;;;;;;4998736;28;20076;-69
2023/11/23 14:14:20;;;;;;;8.70;3.90;;;;;;;;;;5005609;28;20053;-71
2023/11/23 14:16:46;;;;;;;7.37;4.53;;;;;;;;;;4998402;28;20045;-70
2023/11/23 14:19:15;;;;;;;9.50;6.37;;;;;;;;;;4996260;28;20038;-71
2023/11/23 14:21:44;;;;;;;8.97;5.10;;;;;;;;;;4992862;28;20054;-73
2023/11/23 14:24:10;;;;;;;9.30;4.60;;;;;;;;;;4996370;28;20434;-70
2023/11/23 14:26:36;;;;;;;7.20;3.87;;;;;;;;;;4999542;28;20972;-71
2023/11/23 14:29:09;;;;;;;7.33;4.53;;;;;;;;;;4994286;28;20053;-70
2023/11/23 14:31:46;;;;;;;10.67;5.63;;;;;;;;;;4999263;28;20059;-74